Airfield :
LOGIN :

Register | Disclaimer

   EN    FR    IT 

 










Legend :    VFR   Marginal VFR   IFR   Intensive IFR   Very Intensive IFR
Visi :
Ceiling :
>= 8 km
>= 3000ft
5 to 8 km
1000 to 3000 ft
1500m to 5 km
500 to 1000 ft
800 to 1500m
200 to 500 ft
< 800m
< 200 ft
Symbols :   Thunderstorms  Fog  Heavy snow  Heavy precipitations  Wind > 20 kt
SIGMETs :     Misc.  Thunderstorms  Icing  Turbulence  Mountain Waves  Volcanic Ashes






- Airport Elevation : 782 ft
- IATA code : BGY


LIME - Orio al Serio International - Bergamo

CURRENT METAR :
  • 291150Z 20005KT 170V240 5000 TSRA SCT020CB BKN040 16/14 Q0999 NOSIG

EXPIRED METARs :
  • 291120Z 22003KT 180V270 9999 -RA SCT025TCU BKN060 17/14 Q0998 TEMPO 4000 TSRA
  • 291050Z 15005KT 9999 SCT030 SCT050 18/13 Q0999 NOSIG
  • 291020Z 10003KT 030V170 9999 SCT045 SCT070 18/12 Q0999 NOSIG
  • 290950Z VRB02KT 9999 SCT045 SCT070 18/13 Q0999 NOSIG
  • 290920Z 14003KT 090V190 9999 SCT045 BKN070 18/13 Q0999 NOSIG

TAF TAF LIME
Valid from the 29 at 12:00 until the 30 at 12:00 UTC


291100Z 2912/3012 VRB05KT 9999 BKN040
TEMPO 2912/2918 4000 TSRA
TEMPO 2918/3006 4000 SHRA
BECMG 3002/3004 03010KT



MET'MAP, your aeronautical weather chart ! - Copyright ORBIFLY December 2007 - Disclaimer

ORBIFLY MET'MAP TEAM :

Programming & Development : Alexandra Zaïnal
Original concept : Baudouin d'Aumeries
Technical & hardware support : Manuel Goepfert
Assistance : Marc-Olivier Méhu




SOURCES & CREDITS :

   NOAA